Time;durP1;ratioP1;P1;durP2;ratioP2;P2;SDS_P1;SDS_P2;PMS_P1;PMS_P2;Temp;Humidity;BMP_temperature;BMP_pressure;BME280_temperature;BME280_humidity;BME280_pressure;Samples;Min_cycle;Max_cycle;Signal;HPM_P1;HPM_P2
2022/09/10 00:01:22;;;;;;;;;;;22.80;44.60;;;;;;8330788;28;19932;-44
2022/09/10 00:05:23;;;;;;;;;;;22.90;44.70;;;;;;8330076;28;19968;-43
2022/09/10 00:09:23;;;;;;;;;;;22.80;44.70;;;;;;8330576;28;19960;-43
2022/09/10 00:13:24;;;;;;;;;;;22.80;44.70;;;;;;8330316;28;19945;-45
2022/09/10 00:17:25;;;;;;;;;;;22.80;44.70;;;;;;8329955;28;20282;-45
2022/09/10 00:21:26;;;;;;;;;;;22.80;44.70;;;;;;8330378;28;19929;-43
2022/09/10 00:25:28;;;;;;;;;;;22.80;44.70;;;;;;8330028;28;19974;-45
2022/09/10 00:29:28;;;;;;;;;;;22.80;44.70;;;;;;8329686;28;20445;-45
2022/09/10 00:33:29;;;;;;;;;;;22.80;44.70;;;;;;8329919;28;19913;-44
2022/09/10 00:37:29;;;;;;;;;;;22.80;44.70;;;;;;8330155;28;20008;-43
2022/09/10 00:41:32;;;;;;;;;;;22.80;44.70;;;;;;8329471;28;19921;-44
2022/09/10 00:45:32;;;;;;;;;;;22.80;44.70;;;;;;8330131;28;19917;-44
2022/09/10 00:49:39;;;;;;;;;;;22.80;44.70;;;;;;8329755;28;19964;-43
2022/09/10 00:53:39;;;;;;;;;;;22.80;44.80;;;;;;8329199;28;20012;-45
2022/09/10 00:57:40;;;;;;;;;;;22.80;44.80;;;;;;8329922;28;20369;-44
2022/09/10 01:01:41;;;;;;;;;;;22.70;44.80;;;;;;8329905;28;19956;-45
2022/09/10 01:05:43;;;;;;;;;;;22.80;44.90;;;;;;8329219;28;19925;-43
2022/09/10 01:09:44;;;;;;;;;;;22.70;44.90;;;;;;8332049;28;19960;-46
2022/09/10 01:13:55;;;;;;;;;;;22.70;44.90;;;;;;8335452;28;19918;-44
2022/09/10 01:18:09;;;;;;;;;;;22.80;45.00;;;;;;8335108;28;19927;-45
2022/09/10 01:22:14;;;;;;;;;;;22.70;44.90;;;;;;8335255;28;19921;-46
2022/09/10 01:26:44;;;;;;;;;;;22.70;45.00;;;;;;8334860;28;20377;-45
2022/09/10 01:30:48;;;;;;;;;;;22.70;45.00;;;;;;8265877;28;20000;-45
2022/09/10 01:35:02;;;;;;;;;;;22.70;45.00;;;;;;8311623;28;19913;-44
2022/09/10 01:39:02;;;;;;;;;;;22.70;45.00;;;;;;8334189;28;19986;-45
2022/09/10 01:43:07;;;;;;;;;;;22.70;45.00;;;;;;8335002;28;19913;-46
2022/09/10 01:47:13;;;;;;;;;;;22.70;44.90;;;;;;8334259;28;20278;-45
2022/09/10 01:51:33;;;;;;;;;;;22.70;45.00;;;;;;8333899;28;19982;-45
2022/09/10 01:55:42;;;;;;;;;;;22.70;45.00;;;;;;8334086;28;19917;-44
2022/09/10 01:59:54;;;;;;;;;;;22.70;45.00;;;;;;8333343;28;19932;-45
2022/09/10 02:03:56;;;;;;;;;;;22.70;45.00;;;;;;8333896;28;19929;-43
2022/09/10 02:08:02;;;;;;;;;;;22.70;45.00;;;;;;8334050;28;19956;-45
2022/09/10 02:12:03;;;;;;;;;;;22.70;45.00;;;;;;8333242;28;20366;-48
2022/09/10 02:16:06;;;;;;;;;;;22.60;45.00;;;;;;8333760;28;19924;-46
2022/09/10 02:20:09;;;;;;;;;;;22.60;45.00;;;;;;8332629;28;19947;-46
2022/09/10 02:24:10;;;;;;;;;;;22.60;45.00;;;;;;8332896;28;20345;-44
2022/09/10 02:28:11;;;;;;;;;;;22.60;45.10;;;;;;8333319;28;19920;-47
2022/09/10 02:32:12;;;;;;;;;;;22.60;45.00;;;;;;8333021;28;19956;-44
2022/09/10 02:36:12;;;;;;;;;;;22.60;45.10;;;;;;8332320;28;19941;-44
2022/09/10 02:40:13;;;;;;;;;;;22.60;45.10;;;;;;8332806;28;19922;-44
2022/09/10 02:44:13;;;;;;;;;;;22.60;45.10;;;;;;8332626;28;20008;-45
2022/09/10 02:48:14;;;;;;;;;;;22.60;45.10;;;;;;8332242;28;19924;-44
2022/09/10 02:52:14;;;;;;;;;;;22.60;45.20;;;;;;8332288;28;19925;-44
2022/09/10 02:56:15;;;;;;;;;;;22.60;45.20;;;;;;8331975;28;19939;-44
2022/09/10 03:00:15;;;;;;;;;;;22.60;45.20;;;;;;8332129;28;20055;-44
2022/09/10 03:04:16;;;;;;;;;;;22.60;45.20;;;;;;8332066;28;19917;-43
2022/09/10 03:08:16;;;;;;;;;;;22.60;45.20;;;;;;8331715;28;19982;-45
2022/09/10 03:12:17;;;;;;;;;;;22.50;45.20;;;;;;8331717;28;19978;-44
2022/09/10 03:16:18;;;;;;;;;;;22.60;45.30;;;;;;8331956;28;19935;-44
2022/09/10 03:20:21;;;;;;;;;;;22.60;45.30;;;;;;8331268;28;19971;-45
2022/09/10 03:24:24;;;;;;;;;;;22.60;45.30;;;;;;8331959;28;19929;-45
2022/09/10 03:28:25;;;;;;;;;;;22.50;45.30;;;;;;8331494;28;20289;-45
2022/09/10 03:32:25;;;;;;;;;;;22.50;45.30;;;;;;8329902;28;20362;-44
2022/09/10 03:36:30;;;;;;;;;;;22.50;45.30;;;;;;8331120;28;19925;-45
2022/09/10 03:40:30;;;;;;;;;;;22.50;45.30;;;;;;8330879;28;19921;-44
2022/09/10 03:44:32;;;;;;;;;;;22.50;45.30;;;;;;8330598;28;20371;-43
2022/09/10 03:48:33;;;;;;;;;;;22.50;45.30;;;;;;8331256;28;19917;-44
2022/09/10 03:52:34;;;;;;;;;;;22.50;45.40;;;;;;8330628;28;19924;-44
2022/09/10 03:56:35;;;;;;;;;;;22.50;45.40;;;;;;8330255;28;19929;-47
2022/09/10 04:00:35;;;;;;;;;;;22.50;45.40;;;;;;8330556;28;19967;-47
2022/09/10 04:04:36;;;;;;;;;;;22.50;45.40;;;;;;8330823;28;20020;-46
2022/09/10 04:08:37;;;;;;;;;;;22.50;45.40;;;;;;8306316;28;19918;-44
2022/09/10 04:12:38;;;;;;;;;;;22.50;45.40;;;;;;8322093;28;19917;-43
2022/09/10 04:16:38;;;;;;;;;;;22.50;45.40;;;;;;8330423;28;19913;-44
2022/09/10 04:20:39;;;;;;;;;;;22.50;45.40;;;;;;8329630;28;20317;-43
2022/09/10 04:24:40;;;;;;;;;;;22.50;45.50;;;;;;8330312;28;19936;-44
2022/09/10 04:28:41;;;;;;;;;;;22.50;45.50;;;;;;8330111;28;19917;-44
2022/09/10 04:32:41;;;;;;;;;;;22.50;46.00;;;;;;8329542;28;19917;-45
2022/09/10 04:36:42;;;;;;;;;;;22.40;45.50;;;;;;8330065;28;19925;-44
2022/09/10 04:40:42;;;;;;;;;;;22.40;45.50;;;;;;8329936;28;19928;-44
2022/09/10 04:44:43;;;;;;;;;;;22.40;45.50;;;;;;8333070;28;19917;-43
2022/09/10 04:48:43;;;;;;;;;;;22.40;45.50;;;;;;8336242;28;20278;-45
2022/09/10 04:52:43;;;;;;;;;;;22.40;45.50;;;;;;8336064;28;20294;-44
2022/09/10 04:56:45;;;;;;;;;;;22.40;45.50;;;;;;8335674;28;19949;-44
2022/09/10 05:00:45;;;;;;;;;;;22.40;45.60;;;;;;8336052;28;20016;-44
2022/09/10 05:04:46;;;;;;;;;;;22.40;45.60;;;;;;8336006;28;19917;-44
2022/09/10 05:08:46;;;;;;;;;;;22.40;45.60;;;;;;8335272;28;20348;-45
2022/09/10 05:12:47;;;;;;;;;;;22.40;45.60;;;;;;8335685;28;19924;-44
2022/09/10 05:16:47;;;;;;;;;;;22.40;45.60;;;;;;8335755;28;19913;-45
2022/09/10 05:20:48;;;;;;;;;;;22.40;45.60;;;;;;8334796;28;19926;-44
2022/09/10 05:24:49;;;;;;;;;;;22.40;45.60;;;;;;8335216;28;19913;-46
2022/09/10 05:28:52;;;;;;;;;;;22.40;45.60;;;;;;8335127;28;19917;-44
2022/09/10 05:32:52;;;;;;;;;;;22.40;45.60;;;;;;8334522;28;19917;-45
2022/09/10 05:36:53;;;;;;;;;;;22.40;45.60;;;;;;8334505;28;19975;-45
2022/09/10 05:40:55;;;;;;;;;;;22.40;45.60;;;;;;8334785;28;19929;-44
2022/09/10 05:44:56;;;;;;;;;;;22.40;45.60;;;;;;8334298;28;20290;-45
2022/09/10 05:48:56;;;;;;;;;;;22.40;45.60;;;;;;8334331;28;19924;-45
2022/09/10 05:52:57;;;;;;;;;;;22.40;45.60;;;;;;8334146;28;19924;-44
2022/09/10 05:56:57;;;;;;;;;;;22.40;45.70;;;;;;8332580;28;20008;-45
2022/09/10 06:00:58;;;;;;;;;;;22.40;45.70;;;;;;8334143;28;20370;-45
2022/09/10 06:04:59;;;;;;;;;;;22.40;45.70;;;;;;8334216;28;19913;-45
2022/09/10 06:08:59;;;;;;;;;;;22.30;45.70;;;;;;8333235;28;19917;-44
2022/09/10 06:13:00;;;;;;;;;;;22.30;45.70;;;;;;8333896;28;20000;-45
2022/09/10 06:17:00;;;;;;;;;;;22.30;45.70;;;;;;8333661;28;19971;-45
2022/09/10 06:21:02;;;;;;;;;;;22.30;45.70;;;;;;8332939;28;19933;-44
2022/09/10 06:25:03;;;;;;;;;;;22.30;45.70;;;;;;8333611;28;20425;-44
2022/09/10 06:29:04;;;;;;;;;;;22.40;45.70;;;;;;8333188;28;19925;-45
2022/09/10 06:33:04;;;;;;;;;;;22.30;45.70;;;;;;8332512;28;19940;-45
2022/09/10 06:37:05;;;;;;;;;;;22.30;45.70;;;;;;8333060;28;19925;-45
2022/09/10 06:41:06;;;;;;;;;;;22.30;45.80;;;;;;8332764;28;19929;-45
2022/09/10 06:45:07;;;;;;;;;;;22.30;45.80;;;;;;8332404;28;19913;-44
2022/09/10 06:49:09;;;;;;;;;;;22.30;45.80;;;;;;8332377;28;19921;-47
2022/09/10 06:53:10;;;;;;;;;;;22.30;45.80;;;;;;8332248;28;19917;-48
2022/09/10 06:57:10;;;;;;;;;;;22.40;45.80;;;;;;8332173;28;19917;-46
2022/09/10 07:01:16;;;;;;;;;;;22.30;45.80;;;;;;8331969;28;19995;-46
2022/09/10 07:05:16;;;;;;;;;;;22.30;45.90;;;;;;8331923;28;19945;-43
2022/09/10 07:09:17;;;;;;;;;;;22.30;45.80;;;;;;8310627;28;19917;-44
2022/09/10 07:13:17;;;;;;;;;;;22.30;45.90;;;;;;8318663;28;19917;-45
2022/09/10 07:17:19;;;;;;;;;;;22.40;45.90;;;;;;8330823;28;19971;-46
2022/09/10 07:21:21;;;;;;;;;;;22.30;45.90;;;;;;8330848;28;20305;-45
2022/09/10 07:25:22;;;;;;;;;;;22.30;45.90;;;;;;8331618;28;20374;-45
2022/09/10 07:29:22;;;;;;;;;;;22.30;45.90;;;;;;8330375;28;19924;-45
2022/09/10 07:33:23;;;;;;;;;;;22.30;45.90;;;;;;8331289;28;20378;-45
2022/09/10 07:37:24;;;;;;;;;;;22.30;45.90;;;;;;8330761;28;19921;-45
2022/09/10 07:41:28;;;;;;;;;;;22.30;45.90;;;;;;8330446;28;19928;-45
2022/09/10 07:45:29;;;;;;;;;;;22.40;45.90;;;;;;8331202;28;19913;-44
2022/09/10 07:49:30;;;;;;;;;;;22.40;45.90;;;;;;8330897;28;19941;-45
2022/09/10 07:53:31;;;;;;;;;;;22.40;46.00;;;;;;8330320;28;19917;-45
2022/09/10 07:57:33;;;;;;;;;;;22.40;46.50;;;;;;8330609;28;20370;-45
2022/09/10 08:01:33;;;;;;;;;;;22.40;45.90;;;;;;8330556;28;20382;-44
2022/09/10 08:05:35;;;;;;;;;;;22.40;46.00;;;;;;8330185;28;20000;-45
2022/09/10 08:09:36;;;;;;;;;;;22.40;46.00;;;;;;8330203;28;19921;-44
2022/09/10 08:13:37;;;;;;;;;;;22.40;46.00;;;;;;8330181;28;19956;-45
2022/09/10 08:17:38;;;;;;;;;;;22.40;46.00;;;;;;8329965;28;19921;-44
2022/09/10 08:21:39;;;;;;;;;;;22.40;46.00;;;;;;8337099;28;19975;-46
2022/09/10 08:25:47;;;;;;;;;;;22.40;46.00;;;;;;8337256;28;19913;-44
2022/09/10 08:29:48;;;;;;;;;;;22.40;46.00;;;;;;8336384;28;19924;-45
2022/09/10 08:33:49;;;;;;;;;;;22.40;46.00;;;;;;8336823;28;19917;-45
2022/09/10 08:37:50;;;;;;;;;;;22.40;46.00;;;;;;8336526;28;19921;-44
2022/09/10 08:41:54;;;;;;;;;;;22.40;46.00;;;;;;8335832;28;19955;-45
2022/09/10 08:45:55;;;;;;;;;;;22.40;46.00;;;;;;8336637;28;19913;-46
2022/09/10 08:50:01;;;;;;;;;;;22.40;45.90;;;;;;8336162;28;19925;-45
2022/09/10 08:54:04;;;;;;;;;;;22.40;45.90;;;;;;8335740;28;19992;-45
2022/09/10 08:58:13;;;;;;;;;;;22.40;45.90;;;;;;8336135;28;20362;-46
2022/09/10 09:02:28;;;;;;;;;;;22.50;45.90;;;;;;8336385;28;19956;-46
2022/09/10 09:06:32;;;;;;;;;;;22.50;45.90;;;;;;8335883;28;19914;-44
2022/09/10 09:10:40;;;;;;;;;;;22.50;45.90;;;;;;8335421;28;19924;-45
2022/09/10 09:14:56;;;;;;;;;;;22.50;45.80;;;;;;8334970;28;19917;-44
2022/09/10 09:19:00;;;;;;;;;;;22.50;45.80;;;;;;8335213;28;19932;-46
2022/09/10 09:23:16;;;;;;;;;;;22.60;45.80;;;;;;8335128;28;20003;-45
2022/09/10 09:27:18;;;;;;;;;;;22.50;45.80;;;;;;8334938;28;19979;-45
2022/09/10 09:31:21;;;;;;;;;;;22.50;45.80;;;;;;8335642;28;20006;-44
2022/09/10 09:35:24;;;;;;;;;;;22.50;45.80;;;;;;8334344;28;19921;-46
2022/09/10 09:39:27;;;;;;;;;;;22.50;45.80;;;;;;8334777;28;19932;-45
2022/09/10 09:43:35;;;;;;;;;;;22.50;45.80;;;;;;8334521;28;19952;-42
2022/09/10 09:47:35;;;;;;;;;;;22.50;45.80;;;;;;8333990;28;19923;-46
2022/09/10 09:51:36;;;;;;;;;;;22.50;45.80;;;;;;8334589;28;19917;-46
2022/09/10 09:55:42;;;;;;;;;;;22.50;45.80;;;;;;8334299;28;19949;-43
2022/09/10 09:59:42;;;;;;;;;;;22.50;45.80;;;;;;8333497;28;20003;-44
2022/09/10 10:03:47;;;;;;;;;;;22.50;45.80;;;;;;8334121;28;19963;-45
2022/09/10 10:07:47;;;;;;;;;;;22.50;45.80;;;;;;8333624;28;19925;-45
2022/09/10 10:11:52;;;;;;;;;;;22.50;45.80;;;;;;8308272;28;19914;-45
2022/09/10 10:15:53;;;;;;;;;;;22.50;45.70;;;;;;8332279;28;20004;-45
2022/09/10 10:19:57;;;;;;;;;;;22.50;45.70;;;;;;8333371;28;19925;-44
2022/09/10 10:23:58;;;;;;;;;;;22.50;45.70;;;;;;8332852;28;20008;-45
2022/09/10 10:27:58;;;;;;;;;;;22.60;45.80;;;;;;8333007;28;19932;-45
2022/09/10 10:32:00;;;;;;;;;;;22.60;45.70;;;;;;8333241;28;19952;-45
2022/09/10 10:36:09;;;;;;;;;;;22.60;45.70;;;;;;8332435;28;19921;-44
2022/09/10 10:40:22;;;;;;;;;;;22.60;45.70;;;;;;8332956;28;20009;-45
2022/09/10 10:44:28;;;;;;;;;;;22.60;45.70;;;;;;8332047;28;20000;-43
2022/09/10 10:48:36;;;;;;;;;;;22.70;45.70;;;;;;8332538;28;19913;-43
2022/09/10 10:52:37;;;;;;;;;;;22.70;45.60;;;;;;8332318;28;19921;-45
2022/09/10 10:56:40;;;;;;;;;;;22.70;45.60;;;;;;8332350;28;20273;-44
2022/09/10 11:00:48;;;;;;;;;;;22.70;45.60;;;;;;8332302;28;19972;-44
2022/09/10 11:04:50;;;;;;;;;;;22.70;45.60;;;;;;8332035;28;19917;-44
2022/09/10 11:08:54;;;;;;;;;;;22.70;45.60;;;;;;8331473;28;19925;-44
2022/09/10 11:13:03;;;;;;;;;;;22.70;45.50;;;;;;8330439;28;19935;-44
2022/09/10 11:17:10;;;;;;;;;;;22.70;45.60;;;;;;8331774;28;19962;-46
2022/09/10 11:21:28;;;;;;;;;;;22.70;45.50;;;;;;8331130;28;20044;-43
2022/09/10 11:25:36;;;;;;;;;;;22.70;45.50;;;;;;8331573;28;19996;-42
2022/09/10 11:29:42;;;;;;;;;;;22.70;45.50;;;;;;8330878;28;19924;-45
2022/09/10 11:34:01;;;;;;;;;;;22.70;45.50;;;;;;8331419;28;20000;-43
2022/09/10 11:38:21;;;;;;;;;;;22.70;45.40;;;;;;8331095;28;20298;-43
2022/09/10 11:42:27;;;;;;;;;;;22.70;45.40;;;;;;8330948;28;19921;-45
2022/09/10 11:46:31;;;;;;;;;;;22.80;45.40;;;;;;8331056;28;20329;-43
2022/09/10 11:50:35;;;;;;;;;;;22.80;45.40;;;;;;8330347;28;19924;-44
2022/09/10 11:54:37;;;;;;;;;;;22.80;45.90;;;;;;8329805;28;19996;-44
2022/09/10 11:58:44;;;;;;;;;;;22.80;45.30;;;;;;8330683;28;19978;-43
2022/09/10 12:03:03;;;;;;;;;;;22.80;45.20;;;;;;8330369;28;20382;-47
2022/09/10 12:07:03;;;;;;;;;;;22.80;45.20;;;;;;8330886;28;19917;-43
2022/09/10 12:11:06;;;;;;;;;;;22.90;45.20;;;;;;8330395;28;19917;-45
2022/09/10 12:15:19;;;;;;;;;;;22.90;45.20;;;;;;8329756;28;19917;-44
2022/09/10 12:19:25;;;;;;;;;;;22.90;45.20;;;;;;8329985;28;20625;-45
2022/09/10 12:23:34;;;;;;;;;;;22.90;45.10;;;;;;8332027;28;19917;-43
2022/09/10 12:27:58;;;;;;;;;;;22.90;45.10;;;;;;8330614;28;19989;-44
2022/09/10 12:32:07;;;;;;;;;;;22.90;45.10;;;;;;8329910;28;19921;-44
2022/09/10 12:36:12;;;;;;;;;;;23.00;45.10;;;;;;8329691;28;20034;-44
2022/09/10 12:40:25;;;;;;;;;;;23.00;45.10;;;;;;8330035;28;20476;-44
2022/09/10 12:44:28;;;;;;;;;;;23.00;45.10;;;;;;8329424;28;19913;-43
2022/09/10 12:48:29;;;;;;;;;;;23.00;45.10;;;;;;8329599;28;19921;-44
2022/09/10 12:52:30;;;;;;;;;;;23.00;45.10;;;;;;8329867;28;19917;-43
2022/09/10 12:56:49;;;;;;;;;;;23.10;45.10;;;;;;8329251;28;20008;-43
2022/09/10 13:00:53;;;;;;;;;;;23.00;45.10;;;;;;8329823;28;19925;-44
2022/09/10 13:04:56;;;;;;;;;;;23.00;45.00;;;;;;8313547;28;19913;-44
2022/09/10 13:08:57;;;;;;;;;;;23.10;45.10;;;;;;8335177;28;19921;-46
2022/09/10 13:12:59;;;;;;;;;;;23.10;45.00;;;;;;8335898;28;19919;-44
2022/09/10 13:17:00;;;;;;;;;;;23.10;45.00;;;;;;8335532;28;19952;-44
2022/09/10 13:21:19;;;;;;;;;;;23.10;44.90;;;;;;8334808;28;19932;-44
2022/09/10 13:25:46;;;;;;;;;;;23.10;45.00;;;;;;8335403;28;19967;-44
2022/09/10 13:30:06;;;;;;;;;;;23.10;45.00;;;;;;8331715;28;20358;-43
2022/09/10 13:34:16;;;;;;;;;;;23.10;44.90;;;;;;8335204;28;19917;-45
2022/09/10 13:38:17;;;;;;;;;;;23.10;44.90;;;;;;8334784;28;19983;-44
2022/09/10 13:42:27;;;;;;;;;;;23.10;45.00;;;;;;8334593;28;20004;-43
2022/09/10 13:46:47;;;;;;;;;;;23.10;44.90;;;;;;8334610;28;19921;-44
2022/09/10 13:51:07;;;;;;;;;;;23.10;44.80;;;;;;8333677;28;20267;-43
2022/09/10 13:55:14;;;;;;;;;;;23.10;44.80;;;;;;8334294;28;20381;-44
2022/09/10 13:59:19;;;;;;;;;;;23.10;44.70;;;;;;8333789;28;19925;-44
2022/09/10 14:03:21;;;;;;;;;;;23.10;44.70;;;;;;8334901;28;19914;-43
2022/09/10 14:07:24;;;;;;;;;;;23.10;44.70;;;;;;8333984;28;19917;-46
2022/09/10 14:11:26;;;;;;;;;;;23.10;44.70;;;;;;8333474;28;20385;-43
2022/09/10 14:15:30;;;;;;;;;;;23.10;44.70;;;;;;8333051;28;19925;-44
2022/09/10 14:19:48;;;;;;;;;;;23.10;44.70;;;;;;8333309;28;19927;-43
2022/09/10 14:23:48;;;;;;;;;;;23.10;44.70;;;;;;8333056;28;19944;-45
2022/09/10 14:27:50;;;;;;;;;;;23.10;44.70;;;;;;8333864;28;19988;-43
2022/09/10 14:31:50;;;;;;;;;;;23.20;44.70;;;;;;8333308;28;20406;-44
2022/09/10 14:35:52;;;;;;;;;;;23.10;44.70;;;;;;8332611;28;19928;-43
2022/09/10 14:39:52;;;;;;;;;;;23.10;44.70;;;;;;8332878;28;19921;-43
2022/09/10 14:44:13;;;;;;;;;;;23.10;44.70;;;;;;8333054;28;19917;-43
2022/09/10 14:48:43;;;;;;;;;;;23.10;44.70;;;;;;8332335;28;20004;-46
2022/09/10 14:52:43;;;;;;;;;;;23.10;44.70;;;;;;8291092;28;20367;-43
2022/09/10 14:56:45;;;;;;;;;;;23.10;44.70;;;;;;8321699;28;19917;-43
2022/09/10 15:00:46;;;;;;;;;;;23.10;44.70;;;;;;8332346;28;19960;-45
2022/09/10 15:04:47;;;;;;;;;;;23.10;44.70;;;;;;8331984;28;19929;-45
2022/09/10 15:08:48;;;;;;;;;;;23.10;44.70;;;;;;8331700;28;19921;-44
2022/09/10 15:12:50;;;;;;;;;;;23.10;44.60;;;;;;8332132;28;19924;-44
2022/09/10 15:16:51;;;;;;;;;;;23.10;44.60;;;;;;8331847;28;20290;-45
2022/09/10 15:20:52;;;;;;;;;;;23.10;44.60;;;;;;8331349;28;19931;-44
2022/09/10 15:24:53;;;;;;;;;;;23.10;44.60;;;;;;8331348;28;19936;-46
2022/09/10 15:28:53;;;;;;;;;;;23.10;44.60;;;;;;8331582;28;20484;-46
2022/09/10 15:32:54;;;;;;;;;;;23.10;44.60;;;;;;8330794;28;19947;-45
2022/09/10 15:36:54;;;;;;;;;;;23.10;44.70;;;;;;8330850;28;19921;-44
2022/09/10 15:41:05;;;;;;;;;;;23.10;44.60;;;;;;8330908;28;19921;-44
2022/09/10 15:45:05;;;;;;;;;;;23.10;44.60;;;;;;8330524;28;19917;-44
2022/09/10 15:49:06;;;;;;;;;;;23.10;44.60;;;;;;8331030;28;19917;-44
2022/09/10 15:53:07;;;;;;;;;;;23.10;44.60;;;;;;8330660;28;19940;-44
2022/09/10 15:57:07;;;;;;;;;;;23.10;44.60;;;;;;8330200;28;19921;-44
2022/09/10 16:01:12;;;;;;;;;;;23.10;44.60;;;;;;8330416;28;19929;-44
2022/09/10 16:05:14;;;;;;;;;;;23.10;44.60;;;;;;8330498;28;19960;-43
2022/09/10 16:09:14;;;;;;;;;;;23.10;44.60;;;;;;8330664;28;19913;-45
2022/09/10 16:13:15;;;;;;;;;;;23.10;44.60;;;;;;8329266;28;19917;-44
2022/09/10 16:17:16;;;;;;;;;;;23.10;44.60;;;;;;8329758;28;20004;-46
2022/09/10 16:21:17;;;;;;;;;;;23.10;44.60;;;;;;8330361;28;19975;-44
2022/09/10 16:25:18;;;;;;;;;;;23.10;44.60;;;;;;8329898;28;19919;-44
2022/09/10 16:29:19;;;;;;;;;;;23.00;44.60;;;;;;8330222;28;19952;-45
2022/09/10 16:33:20;;;;;;;;;;;23.00;44.60;;;;;;8330440;28;19917;-44
2022/09/10 16:37:22;;;;;;;;;;;23.00;44.60;;;;;;8330111;28;19928;-44
2022/09/10 16:41:23;;;;;;;;;;;23.00;44.60;;;;;;8333941;28;19921;-44
2022/09/10 16:45:23;;;;;;;;;;;23.00;44.70;;;;;;8336271;28;20301;-44
2022/09/10 16:49:24;;;;;;;;;;;23.00;44.60;;;;;;8336491;28;19924;-44
2022/09/10 16:53:24;;;;;;;;;;;23.00;44.70;;;;;;8335651;28;19917;-44
2022/09/10 16:57:25;;;;;;;;;;;23.00;44.70;;;;;;8335983;28;20294;-44
2022/09/10 17:01:25;;;;;;;;;;;23.00;44.70;;;;;;8336086;28;19928;-44
2022/09/10 17:05:26;;;;;;;;;;;23.00;44.70;;;;;;8335410;28;19925;-43
2022/09/10 17:09:26;;;;;;;;;;;23.00;44.70;;;;;;8336212;28;20421;-44
2022/09/10 17:13:26;;;;;;;;;;;23.00;44.70;;;;;;8335752;28;19917;-45
2022/09/10 17:17:27;;;;;;;;;;;23.00;44.70;;;;;;8334939;28;20397;-44
2022/09/10 17:21:30;;;;;;;;;;;23.00;44.70;;;;;;8335218;28;19936;-45
2022/09/10 17:25:30;;;;;;;;;;;23.00;44.70;;;;;;8335400;28;19961;-44
2022/09/10 17:29:31;;;;;;;;;;;22.90;44.70;;;;;;8334826;28;20401;-44
2022/09/10 17:33:32;;;;;;;;;;;22.90;44.70;;;;;;8334797;28;20366;-44
2022/09/10 17:37:32;;;;;;;;;;;22.90;44.70;;;;;;8334757;28;19921;-44
2022/09/10 17:41:33;;;;;;;;;;;22.90;44.70;;;;;;8334589;28;20008;-45
2022/09/10 17:45:35;;;;;;;;;;;22.90;44.70;;;;;;8334426;28;19913;-44
2022/09/10 17:49:36;;;;;;;;;;;22.90;45.30;;;;;;8334724;28;19921;-45
2022/09/10 17:53:37;;;;;;;;;;;22.90;44.70;;;;;;8332492;28;19917;-45
2022/09/10 17:57:38;;;;;;;;;;;22.90;44.80;;;;;;8334236;28;19918;-44
2022/09/10 18:01:39;;;;;;;;;;;22.90;44.80;;;;;;8333045;28;19928;-44
2022/09/10 18:05:40;;;;;;;;;;;22.90;44.80;;;;;;8333617;28;19924;-45
2022/09/10 18:09:40;;;;;;;;;;;22.90;44.80;;;;;;8334049;28;20404;-44
2022/09/10 18:13:42;;;;;;;;;;;22.90;44.80;;;;;;8333652;28;19917;-44
2022/09/10 18:17:43;;;;;;;;;;;22.90;44.80;;;;;;8333077;28;19921;-44
2022/09/10 18:21:44;;;;;;;;;;;22.90;44.80;;;;;;8333126;28;19928;-44
2022/09/10 18:25:44;;;;;;;;;;;22.80;44.80;;;;;;8333209;28;20008;-43
2022/09/10 18:29:45;;;;;;;;;;;22.90;44.80;;;;;;8333002;28;20370;-43
2022/09/10 18:33:45;;;;;;;;;;;22.80;44.70;;;;;;8333408;28;20405;-45
2022/09/10 18:37:46;;;;;;;;;;;22.80;44.80;;;;;;8333031;28;19982;-43
2022/09/10 18:41:47;;;;;;;;;;;22.80;45.30;;;;;;8332394;28;20007;-43
2022/09/10 18:45:48;;;;;;;;;;;22.80;44.70;;;;;;8332739;28;20008;-45
2022/09/10 18:49:49;;;;;;;;;;;22.80;44.70;;;;;;8332976;28;20039;-44
2022/09/10 18:53:53;;;;;;;;;;;22.80;44.70;;;;;;8332181;28;20362;-44
2022/09/10 18:57:55;;;;;;;;;;;22.80;44.80;;;;;;8332494;28;19917;-43
2022/09/10 19:01:56;;;;;;;;;;;22.80;44.80;;;;;;8331853;28;19925;-44
2022/09/10 19:05:56;;;;;;;;;;;22.80;44.80;;;;;;8324005;28;20294;-44
2022/09/10 19:09:57;;;;;;;;;;;22.80;44.80;;;;;;8332471;28;19920;-43
2022/09/10 19:13:59;;;;;;;;;;;22.80;44.80;;;;;;8332000;28;20370;-44
2022/09/10 19:17:59;;;;;;;;;;;22.80;44.80;;;;;;8331320;28;19921;-44
2022/09/10 19:22:05;;;;;;;;;;;22.80;44.80;;;;;;8331542;28;19975;-44
2022/09/10 19:26:08;;;;;;;;;;;22.80;44.90;;;;;;8331625;28;20373;-43
2022/09/10 19:30:09;;;;;;;;;;;22.80;45.00;;;;;;8331117;28;19921;-44
2022/09/10 19:34:10;;;;;;;;;;;22.80;44.90;;;;;;8331298;28;19940;-44
2022/09/10 19:38:11;;;;;;;;;;;22.80;44.90;;;;;;8331115;28;20297;-43
2022/09/10 19:42:12;;;;;;;;;;;22.80;44.90;;;;;;8330944;28;19925;-45
2022/09/10 19:46:15;;;;;;;;;;;22.80;45.00;;;;;;8330343;28;21462;-44
2022/09/10 19:50:16;;;;;;;;;;;22.80;45.00;;;;;;8330755;28;19917;-45
2022/09/10 19:54:16;;;;;;;;;;;22.70;44.90;;;;;;8331053;28;19928;-45
2022/09/10 19:58:17;;;;;;;;;;;22.70;44.90;;;;;;8330728;28;19917;-44
2022/09/10 20:02:17;;;;;;;;;;;22.70;44.90;;;;;;8330151;28;19944;-43
2022/09/10 20:06:19;;;;;;;;;;;22.70;44.90;;;;;;8330554;28;19913;-44
2022/09/10 20:10:19;;;;;;;;;;;22.70;45.00;;;;;;8330898;28;20441;-43
2022/09/10 20:14:20;;;;;;;;;;;22.70;44.90;;;;;;8329207;28;19924;-43
2022/09/10 20:18:27;;;;;;;;;;;22.70;45.00;;;;;;8330405;28;19917;-44
2022/09/10 20:22:28;;;;;;;;;;;22.70;45.00;;;;;;8330261;28;20413;-43
2022/09/10 20:26:30;;;;;;;;;;;22.70;45.00;;;;;;8329907;28;19917;-43
2022/09/10 20:30:30;;;;;;;;;;;22.70;44.90;;;;;;8330427;28;19979;-44
2022/09/10 20:34:31;;;;;;;;;;;22.70;45.00;;;;;;8330114;28;19917;-43
2022/09/10 20:38:32;;;;;;;;;;;22.70;45.00;;;;;;8329527;28;19928;-43
2022/09/10 20:42:32;;;;;;;;;;;22.70;45.00;;;;;;8329881;28;19921;-45
2022/09/10 20:46:33;;;;;;;;;;;22.70;44.90;;;;;;8330124;28;19912;-43
2022/09/10 20:50:33;;;;;;;;;;;22.70;45.20;;;;;;8329772;28;19920;-43
2022/09/10 20:54:34;;;;;;;;;;;22.60;44.90;;;;;;8329743;28;19923;-44
2022/09/10 20:58:35;;;;;;;;;;;22.60;44.90;;;;;;8329601;28;19981;-42
2022/09/10 21:02:37;;;;;;;;;;;22.60;44.90;;;;;;8329271;28;19967;-44
2022/09/10 21:06:38;;;;;;;;;;;22.60;45.00;;;;;;8330109;28;20022;-46
2022/09/10 21:10:38;;;;;;;;;;;22.60;45.00;;;;;;8329721;28;19920;-44
2022/09/10 21:14:39;;;;;;;;;;;22.60;45.00;;;;;;8329077;28;20428;-43
2022/09/10 21:18:40;;;;;;;;;;;22.60;45.00;;;;;;8329353;28;19917;-43
2022/09/10 21:22:41;;;;;;;;;;;22.60;45.00;;;;;;8329434;28;19974;-43
2022/09/10 21:26:42;;;;;;;;;;;22.60;45.00;;;;;;8331993;28;20337;-44
2022/09/10 21:30:42;;;;;;;;;;;22.60;45.00;;;;;;8335368;28;19913;-43
2022/09/10 21:34:43;;;;;;;;;;;22.60;45.10;;;;;;8335242;28;19924;-45
2022/09/10 21:38:46;;;;;;;;;;;22.60;45.00;;;;;;8334243;28;19921;-44
2022/09/10 21:42:46;;;;;;;;;;;22.60;45.10;;;;;;8334996;28;20441;-45
2022/09/10 21:46:47;;;;;;;;;;;22.60;45.10;;;;;;8334523;28;19917;-43
2022/09/10 21:50:56;;;;;;;;;;;22.60;45.10;;;;;;8334476;28;19988;-45
2022/09/10 21:54:56;;;;;;;;;;;22.60;45.10;;;;;;8334753;28;19924;-44
2022/09/10 21:58:58;;;;;;;;;;;22.60;45.10;;;;;;8334200;28;19968;-43
2022/09/10 22:02:58;;;;;;;;;;;22.60;45.10;;;;;;8332396;28;19924;-44
2022/09/10 22:06:58;;;;;;;;;;;22.50;45.10;;;;;;8334006;28;19917;-44
2022/09/10 22:11:03;;;;;;;;;;;22.50;45.10;;;;;;8334429;28;20358;-44
2022/09/10 22:15:05;;;;;;;;;;;22.50;45.10;;;;;;8333352;28;19924;-45
2022/09/10 22:19:07;;;;;;;;;;;22.50;45.10;;;;;;8333653;28;20297;-44
2022/09/10 22:23:07;;;;;;;;;;;22.50;45.20;;;;;;8355295;28;19928;-42
2022/09/10 22:27:08;;;;;;;;;;;22.50;45.10;;;;;;8333179;28;20551;-45
2022/09/10 22:31:13;;;;;;;;;;;22.50;45.20;;;;;;8333666;28;19913;-43
2022/09/10 22:35:13;;;;;;;;;;;22.50;45.20;;;;;;8333041;28;19921;-43
2022/09/10 22:39:15;;;;;;;;;;;22.50;45.20;;;;;;8331785;28;19972;-45
2022/09/10 22:43:16;;;;;;;;;;;22.50;45.20;;;;;;8333016;28;19971;-44
2022/09/10 22:47:17;;;;;;;;;;;22.50;45.20;;;;;;8332353;28;20007;-46
2022/09/10 22:51:18;;;;;;;;;;;22.50;45.20;;;;;;8333252;28;19913;-43
2022/09/10 22:55:19;;;;;;;;;;;22.50;45.20;;;;;;8332810;28;19926;-44
2022/09/10 22:59:19;;;;;;;;;;;22.50;45.20;;;;;;8331878;28;19925;-45
2022/09/10 23:03:20;;;;;;;;;;;22.50;45.20;;;;;;8332169;28;20007;-43
2022/09/10 23:07:20;;;;;;;;;;;22.50;45.20;;;;;;8332133;28;19914;-45
2022/09/10 23:11:22;;;;;;;;;;;22.40;45.20;;;;;;8331789;28;20393;-44
2022/09/10 23:15:22;;;;;;;;;;;22.40;45.20;;;;;;8332040;28;19979;-44
2022/09/10 23:19:23;;;;;;;;;;;22.40;45.20;;;;;;8331671;28;20012;-43
2022/09/10 23:23:24;;;;;;;;;;;22.40;45.20;;;;;;8331370;28;19917;-43
2022/09/10 23:27:25;;;;;;;;;;;22.40;45.20;;;;;;8331616;28;19913;-43
2022/09/10 23:31:26;;;;;;;;;;;22.40;45.20;;;;;;8331859;28;19949;-44